createdAt,value
2019-02-05T00:01:04.470Z,-1.20
2019-02-05T00:03:34.004Z,-1.20
2019-02-05T00:06:07.233Z,-1.20
2019-02-05T00:08:36.979Z,-1.20
2019-02-05T00:11:11.593Z,-1.20
2019-02-05T00:13:41.341Z,-1.20
2019-02-05T01:07:19.962Z,-1.10
2019-02-05T01:11:02.901Z,-1.10
2019-02-05T01:17:30.897Z,-1.10
2019-02-05T01:20:21.311Z,-1.10
2019-02-05T01:26:07.605Z,-1.10
2019-02-05T01:28:45.074Z,-1.00
2019-02-05T01:40:11.663Z,-1.10
2019-02-05T01:43:57.337Z,-1.10
2019-02-05T01:57:54.661Z,-0.80
2019-02-05T02:00:27.154Z,-0.70
2019-02-05T02:02:58.065Z,-0.70
2019-02-05T02:05:29.930Z,-0.70
2019-02-05T02:08:02.284Z,-0.70
2019-02-05T02:10:32.231Z,-0.80
2019-02-05T02:13:01.698Z,-0.70
2019-02-05T02:15:34.038Z,-0.70
2019-02-05T02:18:03.469Z,-0.70
2019-02-05T02:20:34.076Z,-0.70
2019-02-05T02:23:03.479Z,-0.70
2019-02-05T02:25:34.874Z,-0.70
2019-02-05T02:28:03.975Z,-0.70
2019-02-05T02:31:12.077Z,-0.60
2019-02-05T02:42:36.051Z,-0.70
2019-02-05T02:52:59.485Z,-0.80
2019-02-05T03:00:23.447Z,-0.80
2019-02-05T03:19:20.786Z,-1.00
2019-02-05T03:22:57.471Z,-1.00
2019-02-05T03:26:20.477Z,-1.20
2019-02-05T03:33:14.856Z,-1.20
2019-02-05T03:45:52.541Z,-1.40
2019-02-05T03:47:07.073Z,-1.30
2019-02-05T05:13:57.910Z,-2.00
2019-02-05T05:16:33.905Z,-2.00
2019-02-05T05:30:56.251Z,-2.00
2019-02-05T05:38:33.951Z,-2.00
2019-02-05T05:44:42.593Z,-2.00
2019-02-05T05:47:33.904Z,-2.00
2019-02-05T05:50:26.094Z,-1.90
2019-02-05T05:52:55.400Z,-1.90
2019-02-05T05:55:24.671Z,-1.90
2019-02-05T05:57:53.882Z,-2.00
2019-02-05T06:00:23.404Z,-2.00
2019-02-05T06:02:55.654Z,-2.00
2019-02-05T06:05:25.100Z,-1.90
2019-02-05T06:07:57.998Z,-2.00
2019-02-05T06:10:27.358Z,-2.00
2019-02-05T06:28:44.822Z,-2.10
2019-02-05T06:31:15.646Z,-2.10
2019-02-05T06:33:46.536Z,-2.00
2019-02-05T06:36:15.926Z,-2.10
2019-02-05T06:38:45.238Z,-2.10
2019-02-05T06:41:14.674Z,-2.10
2019-02-05T06:43:46.215Z,-2.10
2019-02-05T06:46:18.074Z,-2.10
2019-02-05T06:48:49.024Z,-2.20
2019-02-05T06:51:24.770Z,-2.20
2019-02-05T06:53:57.062Z,-2.30
2019-02-05T06:56:26.686Z,-2.30
2019-02-05T06:58:56.059Z,-2.30
2019-02-05T07:01:25.493Z,-2.40
2019-02-05T07:03:54.727Z,-2.30
2019-02-05T07:06:25.326Z,-2.40
2019-02-05T07:08:54.540Z,-2.40
2019-02-05T07:11:24.081Z,-2.30
2019-02-05T07:13:53.422Z,-2.30
2019-02-05T07:16:22.623Z,-2.30
2019-02-05T07:18:51.874Z,-2.30
2019-02-05T07:21:21.072Z,-2.30
2019-02-05T07:23:50.360Z,-2.30
2019-02-05T07:26:19.600Z,-2.30
2019-02-05T07:28:58.109Z,-2.30
2019-02-05T07:31:19.722Z,-2.30
2019-02-05T07:33:48.957Z,-2.20
2019-02-05T07:36:18.159Z,-2.10
2019-02-05T07:38:47.383Z,-2.10
2019-02-05T07:41:16.612Z,-2.10
2019-02-05T07:43:46.124Z,-2.10
2019-02-05T07:46:15.661Z,-2.00
2019-02-05T07:48:44.989Z,-1.90
2019-02-05T07:51:14.185Z,-1.90
2019-02-05T07:53:43.508Z,-1.80
2019-02-05T07:56:13.060Z,-1.70
2019-02-05T07:58:42.293Z,-1.60
2019-02-05T08:01:11.782Z,-1.50
2019-02-05T08:03:41.000Z,-1.40
2019-02-05T08:06:10.376Z,-1.40
2019-02-05T08:08:39.634Z,-1.30
2019-02-05T08:11:09.122Z,-1.20
2019-02-05T08:13:38.328Z,-1.20
2019-02-05T08:16:07.646Z,-1.00
2019-02-05T08:18:36.862Z,-0.90
2019-02-05T08:21:06.393Z,-0.80
2019-02-05T08:23:35.606Z,-0.80
2019-02-05T08:26:05.261Z,-0.60
2019-02-05T08:28:41.053Z,-0.60
2019-02-05T08:31:05.551Z,-0.50
2019-02-05T08:33:34.871Z,-0.40
2019-02-05T08:36:04.745Z,-0.40
2019-02-05T08:38:34.024Z,-0.40
2019-02-05T08:41:03.264Z,-0.30
2019-02-05T08:43:32.540Z,-0.30
2019-02-05T08:46:01.766Z,-0.20
2019-02-05T08:48:31.049Z,-0.10
2019-02-05T08:51:00.362Z,-0.20
2019-02-05T08:53:29.974Z,-0.10
2019-02-05T08:55:59.193Z,0.00
2019-02-05T08:58:31.147Z,0.10
2019-02-05T09:00:59.471Z,0.10
2019-02-05T09:03:28.756Z,0.20
2019-02-05T09:05:58.036Z,0.30
2019-02-05T09:08:27.239Z,0.40
2019-02-05T09:10:56.629Z,0.50
2019-02-05T09:13:25.832Z,0.60
2019-02-05T09:15:55.030Z,0.80
2019-02-05T09:18:24.431Z,0.90
2019-02-05T09:20:54.502Z,1.10
2019-02-05T09:23:23.826Z,1.30
2019-02-05T09:25:53.340Z,1.50
2019-02-05T09:28:22.548Z,1.60
2019-02-05T09:30:51.841Z,1.70
2019-02-05T09:33:21.127Z,1.70
2019-02-05T09:35:50.304Z,1.70
2019-02-05T09:38:19.511Z,1.70
2019-02-05T09:40:49.126Z,1.70
2019-02-05T09:43:18.689Z,1.70
2019-02-05T09:45:48.050Z,1.80
2019-02-05T09:48:17.228Z,1.80
2019-02-05T09:50:46.486Z,1.90
2019-02-05T09:53:15.789Z,2.00
2019-02-05T09:55:44.989Z,2.00
2019-02-05T09:58:14.184Z,2.10
2019-02-05T10:00:43.501Z,2.10
2019-02-05T10:03:15.133Z,2.20
2019-02-05T10:05:44.496Z,2.20
2019-02-05T10:08:13.948Z,2.20
2019-02-05T10:10:43.364Z,2.20
2019-02-05T10:13:12.710Z,2.20
2019-02-05T10:15:43.147Z,2.20
2019-02-05T10:18:12.861Z,2.20
2019-02-05T10:20:42.272Z,2.30
2019-02-05T10:23:11.591Z,2.30
2019-02-05T10:25:41.077Z,2.40
2019-02-05T10:28:10.681Z,2.40
2019-02-05T10:30:42.106Z,2.40
2019-02-05T10:33:11.621Z,2.50
2019-02-05T10:35:41.012Z,2.50
2019-02-05T10:38:10.425Z,2.50
2019-02-05T10:40:41.409Z,2.50
2019-02-05T10:43:10.762Z,2.40
2019-02-05T10:45:40.079Z,2.50
2019-02-05T10:48:10.363Z,2.60
2019-02-05T10:50:40.867Z,2.60
2019-02-05T10:53:10.144Z,2.60
2019-02-05T10:55:39.483Z,2.60
2019-02-05T10:58:09.393Z,2.60
2019-02-05T11:00:40.418Z,2.50
2019-02-05T11:03:10.434Z,2.50
2019-02-05T11:05:39.817Z,2.50
2019-02-05T11:08:09.594Z,2.60
2019-02-05T11:10:38.936Z,2.60
2019-02-05T11:13:14.805Z,2.60
2019-02-05T11:15:46.209Z,2.70
2019-02-05T11:18:15.492Z,2.70
2019-02-05T11:20:44.703Z,2.80
2019-02-05T11:23:14.108Z,2.80
2019-02-05T11:25:43.394Z,2.80
2019-02-05T11:28:29.080Z,2.80
2019-02-05T11:30:58.357Z,2.80
2019-02-05T11:33:36.509Z,2.80
2019-02-05T11:36:14.066Z,2.80
2019-02-05T11:39:07.615Z,2.90
2019-02-05T11:41:37.524Z,2.90
2019-02-05T11:44:06.777Z,2.90
2019-02-05T11:46:36.016Z,2.90
2019-02-05T11:49:06.749Z,3.00
2019-02-05T11:51:48.613Z,3.00
2019-02-05T11:54:18.591Z,2.90
2019-02-05T12:00:59.279Z,2.90
2019-02-05T12:03:29.737Z,2.90
2019-02-05T12:09:53.061Z,3.10
2019-02-05T12:13:12.602Z,3.10
2019-02-05T12:16:29.315Z,3.10
2019-02-05T12:19:17.531Z,3.10
2019-02-05T12:21:46.895Z,3.10
2019-02-05T12:24:16.168Z,3.20
2019-02-05T12:26:45.571Z,3.20
2019-02-05T12:29:15.037Z,3.20
2019-02-05T12:31:44.237Z,3.20
2019-02-05T12:34:13.507Z,3.20
2019-02-05T12:36:42.804Z,3.30
2019-02-05T12:39:17.508Z,3.20
2019-02-05T12:41:47.093Z,3.30
2019-02-05T12:44:16.452Z,3.30
2019-02-05T12:46:45.820Z,3.30
2019-02-05T12:49:17.424Z,3.20
2019-02-05T12:51:46.744Z,3.30
2019-02-05T12:54:16.213Z,3.20
2019-02-05T12:56:45.542Z,3.20
2019-02-05T12:59:14.838Z,3.20
2019-02-05T13:01:44.017Z,3.30
2019-02-05T13:04:13.271Z,3.30
2019-02-05T13:06:43.393Z,3.30
2019-02-05T13:09:13.347Z,3.30
2019-02-05T13:11:43.028Z,3.30
2019-02-05T13:14:12.469Z,3.30
2019-02-05T13:16:41.726Z,3.30
2019-02-05T13:19:11.107Z,3.30
2019-02-05T13:21:40.337Z,3.30
2019-02-05T13:24:10.401Z,3.20
2019-02-05T13:26:39.719Z,3.20
2019-02-05T13:29:08.955Z,3.20
2019-02-05T13:31:38.125Z,3.20
2019-02-05T13:34:07.965Z,3.20
2019-02-05T13:36:37.182Z,3.30
2019-02-05T13:39:11.393Z,3.20
2019-02-05T13:41:40.678Z,3.30
2019-02-05T13:44:10.077Z,3.20
2019-02-05T13:46:39.356Z,3.20
2019-02-05T13:49:08.721Z,3.30
2019-02-05T13:51:38.391Z,3.30
2019-02-05T13:54:07.801Z,3.40
2019-02-05T13:56:37.065Z,3.40
2019-02-05T13:59:06.296Z,3.40
2019-02-05T14:01:35.492Z,3.30
2019-02-05T14:04:04.902Z,3.30
2019-02-05T14:06:37.273Z,3.30
2019-02-05T14:09:11.957Z,3.30
2019-02-05T14:11:41.573Z,3.20
2019-02-05T14:14:10.763Z,3.20
2019-02-05T14:16:40.084Z,3.20
2019-02-05T14:19:09.345Z,3.20
2019-02-05T14:21:41.065Z,3.20
2019-02-05T14:24:10.267Z,3.20
2019-02-05T14:26:39.825Z,3.20
2019-02-05T14:29:09.054Z,3.20
2019-02-05T14:31:38.320Z,3.20
2019-02-05T14:34:07.622Z,3.20
2019-02-05T14:36:36.816Z,3.20
2019-02-05T14:39:10.008Z,3.20
2019-02-05T14:41:39.221Z,3.20
2019-02-05T14:44:08.530Z,3.20
2019-02-05T14:46:37.832Z,3.20
2019-02-05T14:49:07.553Z,3.20
2019-02-05T14:51:36.764Z,3.20
2019-02-05T14:54:06.208Z,3.20
2019-02-05T14:56:35.376Z,3.20
2019-02-05T14:59:04.853Z,3.20
2019-02-05T15:01:42.807Z,3.20
2019-02-05T15:04:05.229Z,3.10
2019-02-05T15:06:34.508Z,3.10
2019-02-05T15:09:04.787Z,3.10
2019-02-05T15:11:33.985Z,3.10
2019-02-05T15:14:04.166Z,3.10
2019-02-05T15:16:33.481Z,3.00
2019-02-05T15:19:02.769Z,3.00
2019-02-05T15:21:32.962Z,3.00
2019-02-05T15:24:02.249Z,3.00
2019-02-05T15:26:31.441Z,3.00
2019-02-05T15:29:00.645Z,3.00
2019-02-05T15:31:29.899Z,3.00
2019-02-05T15:34:17.074Z,3.00
2019-02-05T15:36:48.678Z,3.00
2019-02-05T15:39:17.944Z,3.00
2019-02-05T15:41:47.240Z,3.00
2019-02-05T15:44:16.636Z,3.00
2019-02-05T15:46:45.947Z,3.00
2019-02-05T15:49:15.166Z,3.00
2019-02-05T15:51:44.438Z,3.00
2019-02-05T15:54:13.649Z,3.00
2019-02-05T15:56:42.905Z,3.00
2019-02-05T15:59:13.293Z,3.00
2019-02-05T16:01:42.681Z,3.00
2019-02-05T16:04:11.901Z,3.00
2019-02-05T16:06:41.142Z,3.00
2019-02-05T16:09:11.354Z,3.00
2019-02-05T16:11:40.573Z,3.00
2019-02-05T16:14:10.032Z,3.00
2019-02-05T16:16:39.356Z,2.90
2019-02-05T16:19:08.649Z,2.90
2019-02-05T16:21:37.913Z,2.90
2019-02-05T16:24:07.178Z,2.90
2019-02-05T16:26:36.478Z,2.90
2019-02-05T16:29:06.079Z,2.90
2019-02-05T16:31:35.446Z,2.80
2019-02-05T16:34:04.754Z,2.90
2019-02-05T16:36:34.051Z,3.00
2019-02-05T16:39:03.808Z,3.00
2019-02-05T16:41:32.984Z,3.20
2019-02-05T16:44:02.561Z,3.50
2019-02-05T16:46:36.085Z,3.60
2019-02-05T16:49:11.526Z,3.50
2019-02-05T16:51:48.861Z,3.60
2019-02-05T16:54:53.506Z,3.50
2019-02-05T17:00:54.924Z,3.40
2019-02-05T17:03:24.136Z,3.40
2019-02-05T17:05:53.844Z,3.40
2019-02-05T17:08:23.070Z,3.50
2019-02-05T17:10:52.257Z,3.50
2019-02-05T17:13:21.636Z,3.40
2019-02-05T17:15:50.956Z,3.40
2019-02-05T17:18:23.556Z,3.40
2019-02-05T17:20:51.472Z,3.40
2019-02-05T17:23:20.668Z,3.40
2019-02-05T17:25:50.105Z,3.40
2019-02-05T17:28:22.789Z,3.40
2019-02-05T17:30:52.252Z,3.40
2019-02-05T17:33:57.845Z,3.40
2019-02-05T17:43:40.281Z,3.20
2019-02-05T17:46:53.076Z,3.20
2019-02-05T17:49:43.804Z,3.10
2019-02-05T17:52:04.452Z,3.10
2019-02-05T17:54:46.644Z,3.10
2019-02-05T18:04:27.689Z,3.00
2019-02-05T18:14:06.310Z,2.90
2019-02-05T18:16:40.601Z,2.70
2019-02-05T18:19:09.798Z,2.70
2019-02-05T18:21:43.258Z,2.80
2019-02-05T18:24:12.617Z,2.70
2019-02-05T18:26:53.047Z,2.80
2019-02-05T18:29:22.252Z,2.70
2019-02-05T18:31:54.022Z,4.20
2019-02-05T18:34:23.512Z,6.00
2019-02-05T18:39:54.148Z,7.10
2019-02-05T18:42:23.694Z,5.70
2019-02-05T18:45:47.725Z,4.90
2019-02-05T18:48:27.326Z,4.40
2019-02-05T18:55:01.850Z,3.80
2019-02-05T18:57:31.168Z,3.50
2019-02-05T19:00:00.411Z,3.40
2019-02-05T19:02:29.825Z,3.20
2019-02-05T19:08:45.737Z,3.10
2019-02-05T19:11:19.424Z,3.00
2019-02-05T19:13:48.934Z,2.90
2019-02-05T19:16:29.721Z,2.80
2019-02-05T19:19:14.362Z,2.80
2019-02-05T19:22:05.866Z,2.80
2019-02-05T19:24:47.650Z,2.70
2019-02-05T19:27:21.066Z,2.70
2019-02-05T19:39:18.677Z,2.60
2019-02-05T19:41:51.938Z,2.60
2019-02-05T19:44:21.129Z,2.60
2019-02-05T19:47:07.984Z,2.50
2019-02-05T19:49:42.831Z,2.60
2019-02-05T19:52:12.170Z,2.50
2019-02-05T19:54:41.609Z,2.50
2019-02-05T20:00:42.806Z,2.50
2019-02-05T20:03:13.110Z,2.60
2019-02-05T20:05:42.439Z,2.50
2019-02-05T20:08:11.766Z,2.50
2019-02-05T20:10:41.042Z,2.50
2019-02-05T20:13:11.001Z,2.50
2019-02-05T20:15:40.424Z,2.50
2019-02-05T20:18:09.761Z,2.50
2019-02-05T20:20:39.000Z,2.50
2019-02-05T20:23:08.276Z,2.50
2019-02-05T20:25:37.515Z,2.50
2019-02-05T20:28:06.788Z,2.50
2019-02-05T20:30:37.699Z,2.40
2019-02-05T20:33:10.949Z,2.50
2019-02-05T20:35:42.305Z,2.50
2019-02-05T20:39:56.990Z,2.50
2019-02-05T20:42:15.936Z,2.50
2019-02-05T20:44:45.686Z,2.50
2019-02-05T20:47:15.489Z,2.50
2019-02-05T20:49:49.151Z,2.50
2019-02-05T20:52:43.010Z,2.50
2019-02-05T20:55:28.301Z,2.50
2019-02-05T20:58:00.239Z,2.50
2019-02-05T21:00:29.627Z,2.50
2019-02-05T21:02:59.049Z,2.50
2019-02-05T21:05:28.367Z,2.50
2019-02-05T21:07:58.062Z,2.50
2019-02-05T21:10:31.804Z,2.50
2019-02-05T21:13:03.059Z,2.50
2019-02-05T21:16:07.942Z,2.50
2019-02-05T21:18:50.636Z,2.50
2019-02-05T21:25:22.427Z,2.50
2019-02-05T21:31:45.860Z,2.50
2019-02-05T21:34:23.941Z,2.40
2019-02-05T21:40:25.640Z,2.40
2019-02-05T21:43:20.928Z,2.50
2019-02-05T21:45:50.619Z,2.40
2019-02-05T21:48:20.421Z,2.40
2019-02-05T21:51:40.279Z,2.40
2019-02-05T21:54:10.312Z,2.40
2019-02-05T21:56:39.460Z,2.40
2019-02-05T21:59:08.838Z,2.40
2019-02-05T22:01:40.279Z,2.40
2019-02-05T22:04:10.201Z,2.40
2019-02-05T22:06:39.808Z,2.40
2019-02-05T22:09:14.746Z,2.40
2019-02-05T22:11:52.314Z,3.90
2019-02-05T22:14:22.408Z,3.60
2019-02-05T22:16:51.819Z,3.20
2019-02-05T22:19:33.281Z,3.00
2019-02-05T22:22:08.492Z,2.80
2019-02-05T22:24:37.693Z,2.70
2019-02-05T22:27:07.519Z,2.60
2019-02-05T22:30:07.944Z,2.50
2019-02-05T22:32:37.926Z,2.50
2019-02-05T22:35:10.736Z,2.40
2019-02-05T22:37:41.846Z,2.40
2019-02-05T22:40:11.274Z,2.30
2019-02-05T22:42:40.541Z,2.30
2019-02-05T22:45:11.347Z,2.30
2019-02-05T22:47:41.108Z,2.20
2019-02-05T22:50:22.076Z,2.20
2019-02-05T22:56:51.988Z,2.30
2019-02-05T22:59:21.723Z,2.30
2019-02-05T23:01:54.609Z,2.30
2019-02-05T23:04:57.296Z,2.30
2019-02-05T23:07:28.533Z,2.30
2019-02-05T23:10:30.030Z,2.20
2019-02-05T23:13:11.086Z,2.20
2019-02-05T23:15:43.463Z,2.20
2019-02-05T23:18:13.228Z,2.20
2019-02-05T23:20:43.375Z,2.20
2019-02-05T23:23:13.969Z,2.20
2019-02-05T23:25:44.088Z,2.20
2019-02-05T23:28:13.461Z,2.20
2019-02-05T23:30:42.916Z,2.20
2019-02-05T23:33:12.545Z,2.20
2019-02-05T23:35:42.597Z,2.20
2019-02-05T23:38:11.830Z,2.20
2019-02-05T23:40:41.073Z,2.20
2019-02-05T23:43:10.448Z,2.20
2019-02-05T23:45:39.785Z,2.20
2019-02-05T23:48:09.657Z,2.10
2019-02-05T23:50:38.923Z,2.10
2019-02-05T23:53:08.181Z,2.10
2019-02-05T23:55:37.888Z,2.10
2019-02-05T23:58:09.767Z,2.10
